createdAt,value
2019-03-01T00:01:27.276Z,5.80
2019-03-01T00:04:00.968Z,2.90
2019-03-01T00:06:37.860Z,3.47
2019-03-01T00:09:42.884Z,4.70
2019-03-01T00:12:53.845Z,4.27
2019-03-01T00:16:18.948Z,4.77
2019-03-01T00:19:11.843Z,3.70
2019-03-01T00:22:14.814Z,5.63
2019-03-01T00:25:10.404Z,6.67
2019-03-01T00:28:13.416Z,4.20
2019-03-01T00:31:30.433Z,4.33
2019-03-01T00:34:18.292Z,5.50
2019-03-01T00:37:37.321Z,4.87
2019-03-01T00:40:27.705Z,8.63
2019-03-01T00:43:39.592Z,5.07
2019-03-01T00:46:08.577Z,3.83
2019-03-01T00:48:37.444Z,3.53
2019-03-01T00:51:06.446Z,6.27
2019-03-01T00:53:35.245Z,5.33
2019-03-01T00:56:04.177Z,4.37
2019-03-01T00:58:33.164Z,3.30
2019-03-01T01:01:02.200Z,4.70
2019-03-01T01:03:31.080Z,3.83
2019-03-01T01:05:59.884Z,6.70
2019-03-01T01:08:28.760Z,4.80
2019-03-01T01:10:57.632Z,6.53
2019-03-01T01:13:26.576Z,4.13
2019-03-01T01:15:55.572Z,4.03
2019-03-01T01:18:24.398Z,7.80
2019-03-01T01:20:53.657Z,3.70
2019-03-01T01:23:22.585Z,4.27
2019-03-01T01:25:51.434Z,5.27
2019-03-01T01:28:20.406Z,4.63
2019-03-01T01:30:49.404Z,3.50
2019-03-01T01:33:18.376Z,8.00
2019-03-01T01:35:47.306Z,4.83
2019-03-01T01:38:16.304Z,4.67
2019-03-01T01:40:45.401Z,4.50
2019-03-01T01:43:14.468Z,5.37
2019-03-01T01:45:43.504Z,7.47
2019-03-01T01:48:12.356Z,5.57
2019-03-01T01:50:41.447Z,5.37
2019-03-01T01:53:10.625Z,4.50
2019-03-01T01:55:39.600Z,3.60
2019-03-01T01:58:08.369Z,5.30
2019-03-01T02:00:37.344Z,6.33
2019-03-01T02:03:06.287Z,4.70
2019-03-01T02:05:35.217Z,5.53
2019-03-01T02:08:04.762Z,5.20
2019-03-01T02:10:33.629Z,6.70
2019-03-01T02:13:02.514Z,7.20
2019-03-01T02:15:31.520Z,6.43
2019-03-01T02:18:00.284Z,6.10
2019-03-01T02:20:29.165Z,4.60
2019-03-01T02:22:58.065Z,3.73
2019-03-01T02:25:26.944Z,7.50
2019-03-01T02:27:55.904Z,5.73
2019-03-01T02:30:26.297Z,6.70
2019-03-01T02:32:55.112Z,6.90
2019-03-01T02:35:25.625Z,7.70
2019-03-01T02:37:54.647Z,9.70
2019-03-01T02:40:23.525Z,6.90
2019-03-01T02:42:52.564Z,7.03
2019-03-01T02:45:22.542Z,10.10
2019-03-01T02:47:51.453Z,8.17
2019-03-01T02:50:20.938Z,5.53
2019-03-01T02:52:49.854Z,6.23
2019-03-01T02:55:19.718Z,6.77
2019-03-01T02:57:48.595Z,7.50
2019-03-01T03:00:22.535Z,5.37
2019-03-01T03:02:51.535Z,6.53
2019-03-01T03:05:20.517Z,5.80
2019-03-01T03:08:08.961Z,7.63
2019-03-01T03:10:37.949Z,5.23
2019-03-01T03:13:08.981Z,6.33
2019-03-01T03:15:40.508Z,6.83
2019-03-01T03:18:09.361Z,6.57
2019-03-01T03:20:38.187Z,3.87
2019-03-01T03:23:06.980Z,5.23
2019-03-01T03:25:35.990Z,5.37
2019-03-01T03:28:04.920Z,3.80
2019-03-01T03:30:34.026Z,6.83
2019-03-01T03:33:03.014Z,4.83
2019-03-01T03:35:31.803Z,3.60
2019-03-01T03:38:00.701Z,3.57
2019-03-01T03:40:30.107Z,6.30
2019-03-01T03:42:59.063Z,3.83
2019-03-01T03:45:28.089Z,4.53
2019-03-01T03:47:57.307Z,2.87
2019-03-01T03:50:26.192Z,3.00
2019-03-01T03:52:55.072Z,4.63
2019-03-01T03:55:24.037Z,5.80
2019-03-01T03:57:53.062Z,4.00
2019-03-01T04:00:22.104Z,2.47
2019-03-01T04:02:51.321Z,4.27
2019-03-01T04:05:20.216Z,3.60
2019-03-01T04:07:49.282Z,3.20
2019-03-01T04:10:18.166Z,2.90
2019-03-01T04:12:47.158Z,8.03
2019-03-01T04:15:16.243Z,5.43
2019-03-01T04:17:45.349Z,4.63
2019-03-01T04:20:15.909Z,10.10
2019-03-01T04:22:44.867Z,5.10
2019-03-01T04:25:13.824Z,2.60
2019-03-01T04:27:42.782Z,3.20
2019-03-01T04:30:14.004Z,2.83
2019-03-01T04:32:42.936Z,4.33
2019-03-01T04:35:11.970Z,3.50
2019-03-01T04:37:41.289Z,7.10
2019-03-01T04:40:11.505Z,4.70
2019-03-01T04:42:40.549Z,4.27
2019-03-01T04:45:10.724Z,3.53
2019-03-01T04:47:39.677Z,4.57
2019-03-01T04:50:09.257Z,5.43
2019-03-01T04:52:38.902Z,3.30
2019-03-01T04:55:10.644Z,4.73
2019-03-01T04:57:39.732Z,3.87
2019-03-01T05:00:12.072Z,3.60
2019-03-01T05:02:40.967Z,4.17
2019-03-01T05:05:09.929Z,4.10
2019-03-01T05:07:38.716Z,3.30
2019-03-01T05:10:08.292Z,3.23
2019-03-01T05:12:37.203Z,3.23
2019-03-01T05:15:06.766Z,4.43
2019-03-01T05:17:35.564Z,3.57
2019-03-01T05:20:05.052Z,5.50
2019-03-01T05:22:33.868Z,3.57
2019-03-01T05:25:03.082Z,3.23
2019-03-01T05:27:32.041Z,3.87
2019-03-01T05:30:00.837Z,4.70
2019-03-01T05:32:29.876Z,5.80
2019-03-01T05:34:58.764Z,3.77
2019-03-01T05:37:27.770Z,3.40
2019-03-01T05:39:56.648Z,3.60
2019-03-01T05:42:25.540Z,4.27
2019-03-01T05:44:54.412Z,3.87
2019-03-01T05:47:23.221Z,5.30
2019-03-01T05:49:52.221Z,8.83
2019-03-01T05:52:21.113Z,5.27
2019-03-01T05:54:49.983Z,3.53
2019-03-01T05:57:18.994Z,3.43
2019-03-01T05:59:47.878Z,3.50
2019-03-01T06:02:47.350Z,4.67
2019-03-01T06:05:37.059Z,3.60
2019-03-01T06:08:30.344Z,3.40
2019-03-01T06:11:42.308Z,2.90
2019-03-01T06:14:37.501Z,2.63
2019-03-01T06:17:22.688Z,6.37
2019-03-01T06:20:00.488Z,2.70
2019-03-01T06:23:13.120Z,3.40
2019-03-01T06:26:23.209Z,2.83
2019-03-01T06:29:09.516Z,2.60
2019-03-01T06:32:18.316Z,2.93
2019-03-01T06:35:01.680Z,3.43
2019-03-01T06:38:37.304Z,5.13
2019-03-01T06:41:40.421Z,3.10
2019-03-01T06:44:36.100Z,2.40
2019-03-01T06:47:40.980Z,3.10
2019-03-01T06:50:35.465Z,2.80
2019-03-01T06:53:04.516Z,2.17
2019-03-01T06:55:54.554Z,2.57
2019-03-01T06:58:25.726Z,2.43
2019-03-01T07:00:59.163Z,2.10
2019-03-01T07:03:27.985Z,2.10
2019-03-01T07:06:03.394Z,1.90
2019-03-01T07:08:27.641Z,2.73
2019-03-01T07:10:56.512Z,1.83
2019-03-01T07:13:25.454Z,2.00
2019-03-01T07:15:54.448Z,2.50
2019-03-01T07:18:23.413Z,1.70
2019-03-01T07:20:52.326Z,1.90
2019-03-01T07:23:21.152Z,1.97
2019-03-01T07:25:50.105Z,2.03
2019-03-01T07:28:19.029Z,1.60
2019-03-01T07:30:48.012Z,2.53
2019-03-01T07:33:16.953Z,2.20
2019-03-01T07:35:46.410Z,2.27
2019-03-01T07:38:15.437Z,3.23
2019-03-01T07:40:44.252Z,1.90
2019-03-01T07:43:13.072Z,1.73
2019-03-01T07:45:42.047Z,1.80
2019-03-01T07:48:11.021Z,2.13
2019-03-01T07:50:39.850Z,2.37
2019-03-01T07:53:08.760Z,4.23
2019-03-01T07:55:37.661Z,2.70
2019-03-01T07:58:06.559Z,2.90
2019-03-01T08:00:35.532Z,3.13
2019-03-01T08:03:04.724Z,3.43
2019-03-01T08:05:35.600Z,2.73
2019-03-01T08:08:04.188Z,3.50
2019-03-01T08:10:33.089Z,2.93
2019-03-01T08:13:01.962Z,2.70
2019-03-01T08:15:31.129Z,4.13
2019-03-01T08:18:00.562Z,3.20
2019-03-01T08:20:30.416Z,3.27
2019-03-01T08:23:00.840Z,2.50
2019-03-01T08:25:31.056Z,2.77
2019-03-01T08:28:00.021Z,3.33
2019-03-01T08:30:28.924Z,2.17
2019-03-01T08:32:57.720Z,2.67
2019-03-01T08:35:28.329Z,2.30
2019-03-01T08:37:57.140Z,2.23
2019-03-01T08:40:26.108Z,2.33
2019-03-01T08:42:54.984Z,2.23
2019-03-01T08:45:23.907Z,2.00
2019-03-01T08:47:55.481Z,2.53
2019-03-01T08:50:23.305Z,2.70
2019-03-01T08:52:52.214Z,2.10
2019-03-01T08:55:21.204Z,1.70
2019-03-01T08:57:50.121Z,2.17
2019-03-01T09:00:23.223Z,1.80
2019-03-01T09:02:53.263Z,1.60
2019-03-01T09:05:22.720Z,1.60
2019-03-01T09:07:51.581Z,1.67
2019-03-01T09:10:20.704Z,1.60
2019-03-01T09:12:49.866Z,1.70
2019-03-01T09:15:18.850Z,2.03
2019-03-01T09:17:47.835Z,1.90
2019-03-01T09:20:17.292Z,2.80
2019-03-01T09:22:46.184Z,3.10
2019-03-01T09:25:15.520Z,3.27
2019-03-01T09:27:44.516Z,3.33
2019-03-01T09:30:16.256Z,2.93
2019-03-01T09:32:45.141Z,3.00
2019-03-01T09:35:50.095Z,2.33
2019-03-01T09:38:19.484Z,1.90
2019-03-01T09:40:48.365Z,2.37
2019-03-01T09:43:17.272Z,1.80
2019-03-01T09:45:48.606Z,2.20
2019-03-01T09:48:16.872Z,1.87
2019-03-01T09:50:45.801Z,2.40
2019-03-01T09:53:14.628Z,2.03
2019-03-01T09:55:43.548Z,2.10
2019-03-01T09:58:12.450Z,2.03
2019-03-01T10:00:43.469Z,2.33
2019-03-01T10:03:12.373Z,1.97
2019-03-01T10:05:41.144Z,2.50
2019-03-01T10:08:09.940Z,1.80
2019-03-01T10:10:38.819Z,2.60
2019-03-01T10:13:07.744Z,5.00
2019-03-01T10:15:36.625Z,3.43
2019-03-01T10:18:05.597Z,2.13
2019-03-01T10:20:34.547Z,2.30
2019-03-01T10:23:03.481Z,2.00
2019-03-01T10:25:32.388Z,2.47
2019-03-01T10:28:01.262Z,2.07
2019-03-01T10:30:30.234Z,2.97
2019-03-01T10:32:59.105Z,2.07
2019-03-01T10:35:27.981Z,2.10
2019-03-01T10:37:56.861Z,2.03
2019-03-01T10:40:25.861Z,2.83
2019-03-01T10:42:55.202Z,2.87
2019-03-01T10:45:24.320Z,2.57
2019-03-01T10:47:53.496Z,2.80
2019-03-01T10:50:22.317Z,3.80
2019-03-01T10:52:51.160Z,2.93
2019-03-01T10:55:20.436Z,3.47
2019-03-01T10:57:49.312Z,3.77
2019-03-01T11:00:20.445Z,2.70
2019-03-01T11:02:49.360Z,3.13
2019-03-01T11:05:18.432Z,3.00
2019-03-01T11:07:47.900Z,3.00
2019-03-01T11:10:28.242Z,2.30
2019-03-01T11:12:57.237Z,2.90
2019-03-01T11:15:26.396Z,7.53
2019-03-01T11:17:55.668Z,4.60
2019-03-01T11:20:24.729Z,3.00
2019-03-01T11:22:53.692Z,3.70
2019-03-01T11:25:23.100Z,2.60
2019-03-01T11:27:52.036Z,3.33
2019-03-01T11:30:23.053Z,2.70
2019-03-01T11:32:51.917Z,2.43
2019-03-01T11:35:20.715Z,2.77
2019-03-01T11:37:49.732Z,2.67
2019-03-01T11:40:20.929Z,3.23
2019-03-01T11:42:49.920Z,2.50
2019-03-01T11:45:18.985Z,2.80
2019-03-01T11:47:48.089Z,2.97
2019-03-01T11:50:19.126Z,2.93
2019-03-01T11:52:48.121Z,4.57
2019-03-01T11:55:17.056Z,3.40
2019-03-01T11:57:45.908Z,3.60
2019-03-01T12:00:18.407Z,3.33
2019-03-01T12:02:48.552Z,3.50
2019-03-01T12:05:17.597Z,3.87
2019-03-01T12:07:46.540Z,4.17
2019-03-01T12:10:20.728Z,4.40
2019-03-01T12:12:49.620Z,4.73
2019-03-01T12:15:18.768Z,4.23
2019-03-01T12:17:47.656Z,4.57
2019-03-01T12:20:18.276Z,4.17
2019-03-01T12:22:47.159Z,5.47
2019-03-01T12:25:16.056Z,4.13
2019-03-01T12:27:44.929Z,4.20
2019-03-01T12:30:16.387Z,4.30
2019-03-01T12:32:45.361Z,5.13
2019-03-01T12:35:14.580Z,6.70
2019-03-01T12:37:44.016Z,4.37
2019-03-01T12:40:21.461Z,6.33
2019-03-01T12:42:50.389Z,5.77
2019-03-01T12:45:19.272Z,7.23
2019-03-01T12:47:48.374Z,9.33
2019-03-01T12:50:17.621Z,7.57
2019-03-01T12:52:46.504Z,8.63
2019-03-01T12:55:17.164Z,10.47
2019-03-01T12:57:46.020Z,10.37
2019-03-01T13:00:17.798Z,9.50
2019-03-01T13:02:46.808Z,9.63
2019-03-01T13:05:15.791Z,9.67
2019-03-01T13:07:44.769Z,10.13
2019-03-01T13:10:24.924Z,12.03
2019-03-01T13:12:54.685Z,11.40
2019-03-01T13:15:24.024Z,10.67
2019-03-01T13:17:53.125Z,13.20
2019-03-01T13:20:22.012Z,11.13
2019-03-01T13:22:50.797Z,10.63
2019-03-01T13:25:19.848Z,9.10
2019-03-01T13:27:52.144Z,11.37
2019-03-01T13:30:20.723Z,9.77
2019-03-01T13:32:49.689Z,9.30
2019-03-01T13:35:18.716Z,9.90
2019-03-01T13:37:47.704Z,9.40
2019-03-01T13:40:17.344Z,9.47
2019-03-01T13:42:47.242Z,12.40
2019-03-01T13:45:18.020Z,8.37
2019-03-01T13:47:46.986Z,8.73
2019-03-01T13:50:16.888Z,12.53
2019-03-01T13:52:46.246Z,10.53
2019-03-01T13:55:18.519Z,12.90
2019-03-01T13:57:49.878Z,12.17
2019-03-01T14:00:17.845Z,15.23
2019-03-01T14:02:47.877Z,17.67
2019-03-01T14:05:18.264Z,15.77
2019-03-01T14:07:47.273Z,14.93
2019-03-01T14:10:18.189Z,13.70
2019-03-01T14:12:47.521Z,13.60
2019-03-01T14:15:17.149Z,15.50
2019-03-01T14:17:46.399Z,14.00
2019-03-01T14:20:20.353Z,15.27
2019-03-01T14:22:47.927Z,15.57
2019-03-01T14:25:18.108Z,11.07
2019-03-01T14:27:47.066Z,13.33
2019-03-01T14:30:17.860Z,13.53
2019-03-01T14:32:47.075Z,13.03
2019-03-01T14:35:16.154Z,13.50
2019-03-01T14:37:45.054Z,17.33
2019-03-01T14:40:14.758Z,13.23
2019-03-01T14:42:46.605Z,13.90
2019-03-01T14:45:17.046Z,13.73
2019-03-01T14:47:46.015Z,13.90
2019-03-01T14:50:16.359Z,13.27
2019-03-01T14:52:45.845Z,16.00
2019-03-01T14:55:26.951Z,15.33
2019-03-01T14:58:02.692Z,17.47
2019-03-01T15:00:38.632Z,20.43
2019-03-01T15:03:39.244Z,22.33
2019-03-01T15:06:09.282Z,22.10
2019-03-01T15:08:40.441Z,26.67
2019-03-01T15:11:18.838Z,22.80
2019-03-01T15:13:49.205Z,27.60
2019-03-01T15:16:18.168Z,26.30
2019-03-01T15:18:47.224Z,28.50
2019-03-01T15:21:16.434Z,26.40
2019-03-01T15:23:45.463Z,35.47
2019-03-01T15:26:14.373Z,29.27
2019-03-01T15:28:54.022Z,32.30
2019-03-01T15:31:18.722Z,36.27
2019-03-01T15:33:47.929Z,30.63
2019-03-01T15:36:17.807Z,29.57
2019-03-01T15:38:47.476Z,35.20
2019-03-01T15:41:16.382Z,31.20
2019-03-01T15:43:45.269Z,33.10
2019-03-01T15:46:15.260Z,35.87
2019-03-01T15:48:44.380Z,34.10
2019-03-01T15:51:13.349Z,33.03
2019-03-01T15:53:42.256Z,35.33
2019-03-01T15:56:11.286Z,38.03
2019-03-01T15:58:40.122Z,43.23
2019-03-01T16:01:11.996Z,44.07
2019-03-01T16:03:42.249Z,33.90
2019-03-01T16:06:17.246Z,40.70
2019-03-01T16:08:43.934Z,34.40
2019-03-01T16:11:12.666Z,40.87
2019-03-01T16:13:47.762Z,34.77
2019-03-01T16:16:14.457Z,33.50
2019-03-01T16:18:43.539Z,34.73
2019-03-01T16:21:12.541Z,33.53
2019-03-01T16:23:41.504Z,38.77
2019-03-01T16:26:10.800Z,30.80
2019-03-01T16:28:39.709Z,39.20
2019-03-01T16:31:08.726Z,34.67
2019-03-01T16:33:37.652Z,33.73
2019-03-01T16:36:12.781Z,33.17
2019-03-01T16:38:47.663Z,30.87
2019-03-01T16:41:12.704Z,32.97
2019-03-01T16:43:41.596Z,32.07
2019-03-01T16:46:10.440Z,31.33
2019-03-01T16:48:39.480Z,29.93
2019-03-01T16:51:10.136Z,27.30
2019-03-01T16:53:40.736Z,32.70
2019-03-01T16:56:09.381Z,30.20
2019-03-01T16:58:38.660Z,33.00
2019-03-01T17:01:29.861Z,32.33
2019-03-01T17:03:57.287Z,28.70
2019-03-01T17:06:26.160Z,27.53
2019-03-01T17:08:55.089Z,33.10
2019-03-01T17:11:24.024Z,34.10
2019-03-01T17:13:52.953Z,31.90
2019-03-01T17:16:23.742Z,33.83
2019-03-01T17:18:52.520Z,29.80
2019-03-01T17:21:21.501Z,30.03
2019-03-01T17:23:50.416Z,29.17
2019-03-01T17:26:19.508Z,30.17
2019-03-01T17:28:49.823Z,29.60
2019-03-01T17:31:19.219Z,29.23
2019-03-01T17:33:48.800Z,30.10
2019-03-01T17:36:19.031Z,26.20
2019-03-01T17:38:48.661Z,25.97
2019-03-01T17:41:17.540Z,27.90
2019-03-01T17:43:46.768Z,27.33
2019-03-01T17:46:15.708Z,30.27
2019-03-01T17:48:44.628Z,27.60
2019-03-01T17:51:13.652Z,28.83
2019-03-01T17:53:43.071Z,29.13
2019-03-01T17:56:13.246Z,29.70
2019-03-01T17:58:42.432Z,28.50
2019-03-01T18:01:11.427Z,28.10
2019-03-01T18:03:40.254Z,32.47
2019-03-01T18:06:09.197Z,31.50
2019-03-01T18:08:39.656Z,29.10
2019-03-01T18:11:09.525Z,28.60
2019-03-01T18:13:38.737Z,28.93
2019-03-01T18:16:07.708Z,28.00
2019-03-01T18:18:36.829Z,29.73
2019-03-01T18:21:05.737Z,29.83
2019-03-01T18:23:37.989Z,25.63
2019-03-01T18:26:05.360Z,29.43
2019-03-01T18:28:34.165Z,25.53
2019-03-01T18:31:03.099Z,27.30
2019-03-01T18:33:31.949Z,29.27
2019-03-01T18:36:00.812Z,26.70
2019-03-01T18:38:31.311Z,25.67
2019-03-01T18:41:01.424Z,26.30
2019-03-01T18:43:30.560Z,26.70
2019-03-01T18:45:59.660Z,26.47
2019-03-01T18:48:28.516Z,27.07
2019-03-01T18:50:57.513Z,27.13
2019-03-01T18:53:28.916Z,29.53
2019-03-01T18:55:56.955Z,28.10
2019-03-01T18:58:26.052Z,28.10
2019-03-01T19:00:55.071Z,26.77
2019-03-01T19:03:24.125Z,24.53
2019-03-01T19:05:53.063Z,31.80
2019-03-01T19:08:21.948Z,26.50
2019-03-01T19:10:54.340Z,25.70
2019-03-01T19:13:24.559Z,29.43
2019-03-01T19:15:54.537Z,32.33
2019-03-01T19:18:23.386Z,26.07
2019-03-01T19:20:52.403Z,23.40
2019-03-01T19:23:21.301Z,24.90
2019-03-01T19:25:50.192Z,27.40
2019-03-01T19:28:19.151Z,23.53
2019-03-01T19:30:49.029Z,27.40
2019-03-01T19:33:18.690Z,28.77
2019-03-01T19:35:47.647Z,38.07
2019-03-01T19:38:16.585Z,28.47
2019-03-01T19:40:46.955Z,27.90
2019-03-01T19:43:16.001Z,27.10
2019-03-01T19:45:44.902Z,26.27
2019-03-01T19:48:13.772Z,28.70
2019-03-01T19:50:43.580Z,35.83
2019-03-01T19:53:12.898Z,38.73
2019-03-01T19:55:43.960Z,33.83
2019-03-01T19:58:12.781Z,32.10
2019-03-01T20:00:42.644Z,29.83
2019-03-01T20:03:12.536Z,28.57
2019-03-01T20:05:41.421Z,25.23
2019-03-01T20:08:10.220Z,26.00
2019-03-01T20:10:39.116Z,28.33
2019-03-01T20:13:08.120Z,29.80
2019-03-01T20:15:37.120Z,28.13
2019-03-01T20:18:06.787Z,27.10
2019-03-01T20:20:36.815Z,24.77
2019-03-01T20:23:05.749Z,28.57
2019-03-01T20:25:34.685Z,24.93
2019-03-01T20:28:03.710Z,24.43
2019-03-01T20:30:32.991Z,23.97
2019-03-01T20:33:01.938Z,25.13
2019-03-01T20:35:30.913Z,25.63
2019-03-01T20:38:03.317Z,25.97
2019-03-01T20:40:30.599Z,25.60
2019-03-01T20:43:05.477Z,25.27
2019-03-01T20:45:31.457Z,23.03
2019-03-01T20:48:00.629Z,23.70
2019-03-01T20:50:29.628Z,25.23
2019-03-01T20:52:58.642Z,23.03
2019-03-01T20:55:27.638Z,23.67
2019-03-01T20:57:59.842Z,22.80
2019-03-01T21:00:27.723Z,23.80
2019-03-01T21:02:57.869Z,23.90
2019-03-01T21:05:28.863Z,23.90
2019-03-01T21:07:57.444Z,24.03
2019-03-01T21:10:26.976Z,24.50
2019-03-01T21:12:56.233Z,17.63
2019-03-01T21:15:25.503Z,26.40
2019-03-01T21:17:57.130Z,19.37
2019-03-01T21:20:25.132Z,16.77
2019-03-01T21:22:54.133Z,15.97
2019-03-01T21:25:23.032Z,15.63
2019-03-01T21:27:52.026Z,13.50
2019-03-01T21:30:25.689Z,15.00
2019-03-01T21:32:54.776Z,16.73
2019-03-01T21:35:23.770Z,17.60
2019-03-01T21:37:53.258Z,15.47
2019-03-01T21:40:22.280Z,16.37
2019-03-01T21:42:52.745Z,16.43
2019-03-01T21:45:22.867Z,17.60
2019-03-01T21:47:52.245Z,16.43
2019-03-01T21:50:21.411Z,15.93
2019-03-01T21:52:51.540Z,17.00
2019-03-01T21:55:20.932Z,14.13
2019-03-01T21:57:50.206Z,15.37
2019-03-01T22:00:21.415Z,15.43
2019-03-01T22:02:52.964Z,17.40
2019-03-01T22:05:23.072Z,16.80
2019-03-01T22:07:52.332Z,14.43
2019-03-01T22:10:21.332Z,14.27
2019-03-01T22:12:50.674Z,15.83
2019-03-01T22:15:25.363Z,15.43
2019-03-01T22:17:54.368Z,17.07
2019-03-01T22:20:23.514Z,15.43
2019-03-01T22:22:52.408Z,14.33
2019-03-01T22:25:21.625Z,14.80
2019-03-01T22:27:50.632Z,16.77
2019-03-01T22:30:23.978Z,16.60
2019-03-01T22:32:53.027Z,16.37
2019-03-01T22:35:22.008Z,15.47
2019-03-01T22:37:50.889Z,15.90
2019-03-01T22:40:23.921Z,17.23
2019-03-01T22:42:51.203Z,17.33
2019-03-01T22:45:20.244Z,16.03
2019-03-01T22:47:49.563Z,18.23
2019-03-01T22:50:18.368Z,15.67
2019-03-01T22:52:47.398Z,15.10
2019-03-01T22:55:16.410Z,15.27
2019-03-01T22:57:45.400Z,14.53
2019-03-01T23:01:03.142Z,15.70
2019-03-01T23:03:32.504Z,14.07
2019-03-01T23:06:01.828Z,15.57
2019-03-01T23:08:31.807Z,15.90
2019-03-01T23:11:01.472Z,17.47
2019-03-01T23:13:30.868Z,16.60
2019-03-01T23:16:00.231Z,16.50
2019-03-01T23:18:29.069Z,17.70
2019-03-01T23:21:01.006Z,17.20
2019-03-01T23:23:28.701Z,16.27
2019-03-01T23:25:57.512Z,16.70
2019-03-01T23:28:26.741Z,16.40
2019-03-01T23:30:55.649Z,19.00
2019-03-01T23:33:27.688Z,16.00
2019-03-01T23:35:55.190Z,16.83
2019-03-01T23:38:24.064Z,18.00
2019-03-01T23:40:53.013Z,16.77
2019-03-01T23:43:21.891Z,16.70
2019-03-01T23:45:53.807Z,19.83
2019-03-01T23:48:21.394Z,19.20
2019-03-01T23:50:50.384Z,18.17
2019-03-01T23:53:19.277Z,17.83
2019-03-01T23:55:51.017Z,18.20
2019-03-01T23:58:18.789Z,18.73
